createdAt,value
2017-03-29T00:00:16.542Z,64.12
2017-03-29T00:01:16.865Z,64.05
2017-03-29T00:02:16.287Z,63.35
2017-03-29T00:03:16.610Z,63.86
2017-03-29T00:04:16.635Z,63.1
2017-03-29T00:05:16.657Z,63.67
2017-03-29T00:06:16.677Z,62.81
2017-03-29T00:07:16.698Z,63.2
2017-03-29T00:08:16.725Z,63.2
2017-03-29T00:09:16.750Z,63.2
2017-03-29T00:11:16.792Z,63.29
2017-03-29T00:12:16.811Z,63.48
2017-03-29T00:13:16.832Z,63.48
2017-03-29T00:14:16.855Z,63.48
2017-03-29T00:15:16.880Z,64.21
2017-03-29T00:16:16.904Z,64.12
2017-03-29T00:17:16.925Z,63.92
2017-03-29T00:18:16.952Z,64.12
2017-03-29T00:19:16.971Z,64.31
2017-03-29T00:20:16.992Z,64.12
2017-03-29T00:21:17.013Z,64.31
2017-03-29T00:22:17.039Z,64.31
2017-03-29T00:23:17.059Z,64.21
2017-03-29T00:24:17.085Z,64.02
2017-03-29T00:26:17.130Z,64.12
2017-03-29T00:27:17.152Z,64.12
2017-03-29T00:28:17.172Z,63.83
2017-03-29T00:29:31.811Z,64.21
2017-03-29T00:30:17.219Z,64.02
2017-03-29T00:31:17.241Z,64.4
2017-03-29T00:32:17.266Z,64.4
2017-03-29T00:33:17.284Z,64.69
2017-03-29T00:34:17.316Z,64.31
2017-03-29T00:35:17.335Z,64.12
2017-03-29T00:37:17.378Z,64.21
2017-03-29T00:39:17.420Z,64.4
2017-03-29T00:40:17.441Z,65.17
2017-03-29T00:42:17.487Z,65.17
2017-03-29T00:43:17.511Z,65.17
2017-03-29T00:44:17.536Z,65.8
2017-03-29T00:45:32.170Z,65.7
2017-03-29T00:46:17.578Z,65.74
2017-03-29T00:47:17.604Z,65.36
2017-03-29T00:48:17.626Z,65.36
2017-03-29T00:49:17.643Z,65.74
2017-03-29T00:50:17.698Z,65.64
2017-03-29T00:51:17.690Z,65.42
2017-03-29T00:52:17.716Z,65.99
2017-03-29T00:53:17.735Z,66.18
2017-03-29T00:54:17.755Z,66.75
2017-03-29T00:55:17.787Z,65.8
2017-03-29T00:56:17.804Z,66.28
2017-03-29T00:57:17.828Z,65.83
2017-03-29T00:58:17.847Z,66.09
2017-03-29T00:59:17.872Z,66.38
2017-03-29T01:00:17.894Z,66.18
2017-03-29T01:01:32.528Z,65.99
2017-03-29T01:02:17.938Z,66.28
2017-03-29T01:03:17.960Z,66.94
2017-03-29T01:04:17.988Z,66.94
2017-03-29T01:05:18.004Z,66.47
2017-03-29T01:06:18.029Z,66.75
2017-03-29T01:07:18.050Z,67.14
2017-03-29T01:08:18.070Z,66.66
2017-03-29T01:09:18.097Z,66.66
2017-03-29T01:10:18.116Z,67.04
2017-03-29T01:12:18.158Z,67.52
2017-03-29T01:13:18.181Z,67.33
2017-03-29T01:14:18.203Z,68.09
2017-03-29T01:15:18.225Z,67.9
2017-03-29T01:16:18.250Z,67.9
2017-03-29T01:17:32.886Z,67.9
2017-03-29T01:18:18.293Z,67.52
2017-03-29T01:19:18.013Z,67.42
2017-03-29T01:20:18.340Z,67.9
2017-03-29T01:21:18.359Z,67.8
2017-03-29T01:22:18.382Z,67.99
2017-03-29T01:23:18.405Z,67.99
2017-03-29T01:24:18.425Z,68.38
2017-03-29T01:25:18.448Z,68.53
2017-03-29T01:26:18.469Z,68.47
2017-03-29T01:27:18.491Z,67.96
2017-03-29T01:28:18.518Z,67.96
2017-03-29T01:30:18.558Z,68.82
2017-03-29T01:31:18.586Z,68.34
2017-03-29T01:32:33.219Z,68.24
2017-03-29T01:33:18.626Z,68.72
2017-03-29T01:34:18.650Z,69.39
2017-03-29T01:35:18.673Z,69.01
2017-03-29T01:36:18.695Z,69.29
2017-03-29T01:37:18.717Z,69.39
2017-03-29T01:38:18.737Z,69.29
2017-03-29T01:39:18.760Z,69.87
2017-03-29T01:40:18.781Z,69.96
2017-03-29T01:41:18.806Z,69.96
2017-03-29T01:42:18.823Z,69.87
2017-03-29T01:43:18.847Z,69.77
2017-03-29T01:45:18.890Z,70.31
2017-03-29T01:46:18.914Z,70.5
2017-03-29T01:47:18.936Z,70.78
2017-03-29T01:48:18.958Z,70.97
2017-03-29T01:49:18.981Z,70.88
2017-03-29T01:50:19.008Z,71.45
2017-03-29T01:51:19.023Z,71.36
2017-03-29T01:52:19.046Z,71.07
2017-03-29T01:53:19.070Z,71.55
2017-03-29T01:54:19.094Z,71.55
2017-03-29T01:55:19.134Z,71.64
2017-03-29T01:56:19.138Z,71.64
2017-03-29T01:58:19.176Z,72.5
2017-03-29T01:59:19.201Z,72.5
2017-03-29T02:00:19.224Z,72.41
2017-03-29T02:01:19.243Z,72.31
2017-03-29T02:02:19.267Z,72.41
2017-03-29T02:03:19.287Z,72.31
2017-03-29T02:04:33.925Z,72.69
2017-03-29T02:05:19.337Z,72.97
2017-03-29T02:06:19.353Z,72.69
2017-03-29T02:07:19.375Z,72.88
2017-03-29T02:08:19.398Z,72.69
2017-03-29T02:09:19.422Z,72.97
2017-03-29T02:10:19.441Z,72.97
2017-03-29T02:11:19.465Z,73.07
2017-03-29T02:12:19.485Z,73.17
2017-03-29T02:13:19.507Z,73.36
2017-03-29T02:14:19.530Z,73.26
2017-03-29T02:15:19.553Z,73.17
2017-03-29T02:16:19.575Z,72.97
2017-03-29T02:17:19.596Z,73.74
2017-03-29T02:19:19.636Z,73.41
2017-03-29T02:20:34.275Z,73.32
2017-03-29T02:21:19.683Z,73.89
2017-03-29T02:22:19.707Z,74.18
2017-03-29T02:23:19.725Z,74.37
2017-03-29T02:24:19.752Z,74.65
2017-03-29T02:25:19.769Z,74.37
2017-03-29T02:26:19.791Z,74.84
2017-03-29T02:27:19.814Z,74.46
2017-03-29T02:28:19.835Z,74.75
2017-03-29T02:29:19.858Z,74.37
2017-03-29T02:30:19.887Z,74.6
2017-03-29T02:31:19.900Z,74.88
2017-03-29T02:32:19.925Z,74.98
2017-03-29T02:33:19.643Z,75.13
2017-03-29T02:34:19.965Z,75.07
2017-03-29T02:35:19.988Z,74.79
2017-03-29T02:36:34.624Z,74.94
2017-03-29T02:37:20.031Z,75.23
2017-03-29T02:38:20.056Z,75.26
2017-03-29T02:39:19.770Z,74.79
2017-03-29T02:40:20.094Z,74.84
2017-03-29T02:41:20.116Z,74.75
2017-03-29T02:42:20.140Z,74.94
2017-03-29T02:43:20.161Z,74.94
2017-03-29T02:44:20.183Z,75.04
2017-03-29T02:49:20.290Z,75.42
2017-03-29T02:50:20.313Z,75.51
2017-03-29T02:51:20.337Z,75.99
2017-03-29T02:52:34.969Z,76.08
2017-03-29T02:53:20.374Z,76.08
2017-03-29T02:54:20.399Z,76.46
2017-03-29T02:55:20.420Z,75.79
2017-03-29T02:56:20.438Z,76.08
2017-03-29T02:57:20.464Z,76.18
2017-03-29T02:58:20.482Z,76.37
2017-03-29T02:59:20.505Z,76.65
2017-03-29T03:00:20.526Z,76.94
2017-03-29T03:01:20.550Z,76.65
2017-03-29T03:03:20.593Z,76.65
2017-03-29T03:05:20.637Z,76.94
2017-03-29T03:06:20.656Z,77.13
2017-03-29T03:07:35.293Z,77.37
2017-03-29T03:08:20.701Z,77.28
2017-03-29T03:09:20.723Z,77.09
2017-03-29T03:10:20.741Z,77.22
2017-03-29T03:11:20.764Z,77.09
2017-03-29T03:12:20.786Z,77.76
2017-03-29T03:13:21.109Z,77.7
2017-03-29T03:15:20.849Z,77.42
2017-03-29T03:16:20.871Z,77.28
2017-03-29T03:18:20.916Z,77.61
2017-03-29T03:19:20.933Z,77.28
2017-03-29T03:20:20.957Z,77.66
2017-03-29T03:21:20.980Z,77.95
2017-03-29T03:22:21.002Z,77.37
2017-03-29T03:23:21.023Z,77.66
2017-03-29T03:24:21.044Z,77.56
2017-03-29T03:25:21.065Z,78.14
2017-03-29T03:26:21.090Z,77.95
2017-03-29T03:27:21.109Z,77.56
2017-03-29T03:28:21.127Z,77.56
2017-03-29T03:29:21.151Z,77.56
2017-03-29T03:30:21.173Z,77.47
2017-03-29T03:31:21.193Z,77.76
2017-03-29T03:32:21.214Z,77.76
2017-03-29T03:33:21.237Z,78.14
2017-03-29T03:34:21.257Z,78.04
2017-03-29T03:35:21.277Z,77.95
2017-03-29T03:36:21.299Z,78.23
2017-03-29T03:37:21.320Z,77.95
2017-03-29T03:38:21.342Z,77.85
2017-03-29T03:39:35.981Z,78.33
2017-03-29T03:40:21.386Z,78.71
2017-03-29T03:41:21.407Z,78.61
2017-03-29T03:42:21.428Z,78.23
2017-03-29T03:43:21.450Z,78.52
2017-03-29T03:44:21.469Z,77.95
2017-03-29T03:45:21.790Z,77.76
2017-03-29T03:46:21.514Z,78.42
2017-03-29T03:47:21.534Z,77.95
2017-03-29T03:48:21.554Z,77.85
2017-03-29T03:49:21.574Z,78.42
2017-03-29T03:50:21.600Z,78.42
2017-03-29T03:51:21.620Z,78.52
2017-03-29T03:52:21.641Z,78.23
2017-03-29T03:53:21.662Z,78.23
2017-03-29T03:54:21.380Z,78.23
2017-03-29T03:55:36.347Z,78.99
2017-03-29T03:56:21.727Z,79.28
2017-03-29T03:57:21.744Z,78.8
2017-03-29T03:58:21.767Z,79.09
2017-03-29T03:59:21.788Z,78.9
2017-03-29T04:00:21.813Z,78.61
2017-03-29T04:01:21.831Z,78.8
2017-03-29T04:02:21.857Z,79.28
2017-03-29T04:03:21.873Z,79.28
2017-03-29T04:04:21.892Z,79.57
2017-03-29T04:06:21.936Z,79.38
2017-03-29T04:07:21.958Z,80.04
2017-03-29T04:09:21.999Z,80.1
2017-03-29T04:10:22.023Z,79.94
2017-03-29T04:11:36.657Z,79.81
2017-03-29T04:12:22.063Z,79.85
2017-03-29T04:13:22.082Z,79.75
2017-03-29T04:14:22.104Z,79.75
2017-03-29T04:15:22.124Z,79.75
2017-03-29T04:16:22.150Z,79.72
2017-03-29T04:17:21.863Z,79.85
2017-03-29T04:18:21.887Z,80.33
2017-03-29T04:19:22.206Z,80.33
2017-03-29T04:20:22.231Z,80.04
2017-03-29T04:21:21.948Z,79.94
2017-03-29T04:22:22.277Z,79.75
2017-03-29T04:23:21.994Z,79.75
2017-03-29T04:24:22.317Z,79.47
2017-03-29T04:25:22.338Z,79.85
2017-03-29T04:26:22.055Z,78.99
2017-03-29T04:27:36.994Z,79.09
2017-03-29T04:28:22.401Z,78.33
2017-03-29T04:29:22.423Z,78.23
2017-03-29T04:30:22.444Z,78.33
2017-03-29T04:31:22.463Z,77.66
2017-03-29T04:32:22.184Z,78.17
2017-03-29T04:33:22.504Z,77.61
2017-03-29T04:34:22.527Z,77.7
2017-03-29T04:35:22.551Z,77.89
2017-03-29T04:36:22.577Z,77.42
2017-03-29T04:37:22.593Z,77.51
2017-03-29T04:38:22.615Z,77.51
2017-03-29T04:40:22.655Z,76.56
2017-03-29T04:41:22.677Z,76.75
2017-03-29T04:42:37.314Z,76.37
2017-03-29T04:43:22.723Z,76.65
2017-03-29T04:44:22.738Z,76.27
2017-03-29T04:45:22.761Z,76.27
2017-03-29T04:46:22.783Z,76.37
2017-03-29T04:48:22.823Z,77.03
2017-03-29T04:49:22.872Z,77.22
2017-03-29T04:50:22.869Z,77.51
2017-03-29T04:51:22.891Z,77.85
2017-03-29T04:52:22.909Z,77.85
2017-03-29T04:53:22.931Z,77.66
2017-03-29T04:54:22.951Z,77.56
2017-03-29T04:55:22.974Z,77.76
2017-03-29T04:56:22.993Z,77.76
2017-03-29T04:57:23.015Z,77.85
2017-03-29T04:58:23.036Z,78.04
2017-03-29T04:59:23.074Z,78.14
2017-03-29T05:00:23.080Z,78.04
2017-03-29T05:01:23.098Z,77.95
2017-03-29T05:02:23.123Z,78.14
2017-03-29T05:03:23.140Z,78.61
2017-03-29T05:04:23.165Z,78.23
2017-03-29T05:05:23.186Z,78.04
2017-03-29T05:07:23.226Z,78.14
2017-03-29T05:08:23.248Z,78.14
2017-03-29T05:09:23.274Z,77.76
2017-03-29T05:10:23.291Z,77.47
2017-03-29T05:11:23.311Z,77.76
2017-03-29T05:12:23.332Z,77.85
2017-03-29T05:13:23.354Z,77.56
2017-03-29T05:14:37.989Z,77.66
2017-03-29T05:15:23.395Z,77.37
2017-03-29T05:16:23.417Z,77.56
2017-03-29T05:17:23.436Z,76.65
2017-03-29T05:18:23.460Z,76.94
2017-03-29T05:19:23.482Z,77.13
2017-03-29T05:20:23.604Z,76.27
2017-03-29T05:21:23.523Z,76.46
2017-03-29T05:22:23.543Z,75.23
2017-03-29T05:24:23.588Z,74.84
2017-03-29T05:27:23.651Z,75.07
2017-03-29T05:28:23.673Z,74.6
2017-03-29T05:29:23.693Z,74.5
2017-03-29T05:30:38.329Z,74.4
2017-03-29T05:31:23.739Z,74.5
2017-03-29T05:32:23.758Z,74.02
2017-03-29T05:33:23.474Z,73.93
2017-03-29T05:34:23.799Z,74.02
2017-03-29T05:35:23.822Z,73.36
2017-03-29T05:36:23.839Z,74.21
2017-03-29T05:37:23.863Z,73.36
2017-03-29T05:38:23.888Z,73.55
2017-03-29T05:39:23.905Z,73.58
2017-03-29T05:40:23.931Z,73.49
2017-03-29T05:41:23.950Z,73.11
2017-03-29T05:42:23.970Z,73.01
2017-03-29T05:43:23.992Z,73.39
2017-03-29T05:44:24.012Z,72.63
2017-03-29T05:45:24.035Z,73.01
2017-03-29T05:46:38.671Z,73.3
2017-03-29T05:47:24.076Z,73.01
2017-03-29T05:48:24.152Z,72.63
2017-03-29T05:49:24.119Z,71.77
2017-03-29T05:50:24.142Z,72.44
2017-03-29T05:51:23.857Z,72.63
2017-03-29T05:52:24.184Z,72.25
2017-03-29T05:53:24.213Z,72.53
2017-03-29T05:54:24.225Z,72.63
2017-03-29T05:55:24.248Z,71.68
2017-03-29T05:56:24.272Z,71.81
2017-03-29T05:58:24.010Z,71.52
2017-03-29T05:59:24.332Z,71.43
2017-03-29T06:00:24.358Z,71.62
2017-03-29T06:01:24.377Z,71.33
2017-03-29T06:02:39.014Z,71.43
2017-03-29T06:03:24.421Z,71.62
2017-03-29T06:04:24.450Z,71.43
2017-03-29T06:05:24.460Z,71.62
2017-03-29T06:06:24.182Z,71.62
2017-03-29T06:07:24.508Z,71.72
2017-03-29T06:08:24.527Z,71.72
2017-03-29T06:09:24.550Z,71.72
2017-03-29T06:10:24.568Z,72
2017-03-29T06:11:24.598Z,71.52
2017-03-29T06:12:24.612Z,71.52
2017-03-29T06:13:24.639Z,71.52
2017-03-29T06:14:24.660Z,70.86
2017-03-29T06:15:24.682Z,70.67
2017-03-29T06:16:24.701Z,70.13
2017-03-29T06:17:39.339Z,69.17
2017-03-29T06:18:24.752Z,68.92
2017-03-29T06:19:24.769Z,67.77
2017-03-29T06:20:24.801Z,67.33
2017-03-29T06:21:24.817Z,67.52
2017-03-29T06:22:24.537Z,66.76
2017-03-29T06:23:24.861Z,66.95
2017-03-29T06:24:24.885Z,66.95
2017-03-29T06:25:24.919Z,67.33
2017-03-29T06:26:24.933Z,67.14
2017-03-29T06:27:24.957Z,67.24
2017-03-29T06:28:24.975Z,67.52
2017-03-29T06:29:25.007Z,67.43
2017-03-29T06:30:25.025Z,66.85
2017-03-29T06:31:25.052Z,66.7
2017-03-29T06:32:25.075Z,65.26
2017-03-29T06:33:25.099Z,64.25
2017-03-29T06:34:25.122Z,64.25
2017-03-29T06:35:25.149Z,63.57
2017-03-29T06:36:25.175Z,62.9
2017-03-29T06:37:25.201Z,63
2017-03-29T06:38:25.218Z,63
2017-03-29T06:39:25.246Z,62.9
2017-03-29T06:40:25.269Z,63.1
2017-03-29T06:41:25.293Z,62.71
2017-03-29T06:42:25.322Z,63.1
2017-03-29T06:43:25.344Z,62.55
2017-03-29T06:45:25.397Z,61.15
2017-03-29T06:46:25.426Z,60
2017-03-29T06:47:25.446Z,59.75
2017-03-29T06:48:25.473Z,59.17
2017-03-29T06:49:40.113Z,58.4
2017-03-29T06:50:25.527Z,57.86
2017-03-29T06:51:25.552Z,57.12
2017-03-29T06:52:25.579Z,56.09
2017-03-29T06:53:25.601Z,55.04
2017-03-29T06:54:25.631Z,54.94
2017-03-29T06:55:25.661Z,56.09
2017-03-29T06:56:25.689Z,54.75
2017-03-29T06:58:25.745Z,55.68
2017-03-29T07:00:25.798Z,55.97
2017-03-29T07:01:25.825Z,56.07
2017-03-29T07:02:25.852Z,56.99
2017-03-29T07:04:26.056Z,56.26
2017-03-29T07:05:40.560Z,56.54
2017-03-29T07:06:25.959Z,57.12
2017-03-29T07:07:25.984Z,57.03
2017-03-29T07:08:26.015Z,57.21
2017-03-29T07:09:26.043Z,57.21
2017-03-29T07:10:26.067Z,57.24
2017-03-29T07:11:26.096Z,56.67
2017-03-29T07:12:26.124Z,57.34
2017-03-29T07:13:26.150Z,57.12
2017-03-29T07:14:26.176Z,57.31
2017-03-29T07:15:26.202Z,57.5
2017-03-29T07:16:26.235Z,57.89
2017-03-29T07:17:26.259Z,58.17
2017-03-29T07:18:26.285Z,59.04
2017-03-29T07:19:26.008Z,59.04
2017-03-29T07:20:26.337Z,58.94
2017-03-29T07:21:40.983Z,58.81
2017-03-29T07:22:26.388Z,59.01
2017-03-29T07:23:26.114Z,59.3
2017-03-29T07:24:26.444Z,59.68
2017-03-29T07:25:26.468Z,59.68
2017-03-29T07:26:26.496Z,60.16
2017-03-29T07:27:26.521Z,60.54
2017-03-29T07:28:26.548Z,60.51
2017-03-29T07:29:27.025Z,60.61
2017-03-29T07:31:26.625Z,61.02
2017-03-29T07:32:26.652Z,61.6
2017-03-29T07:33:26.674Z,61.66
2017-03-29T07:34:26.703Z,62.33
2017-03-29T07:35:26.731Z,62.71
2017-03-29T07:36:26.752Z,63.19
2017-03-29T07:37:41.394Z,62.62
2017-03-29T07:38:26.803Z,62.71
2017-03-29T07:39:26.831Z,63
2017-03-29T07:40:26.854Z,62.23
2017-03-29T07:41:26.882Z,62.17
2017-03-29T07:42:26.906Z,62.46
2017-03-29T07:43:26.929Z,61.5
2017-03-29T07:44:26.957Z,61.6
2017-03-29T07:45:26.981Z,61.6
2017-03-29T07:46:27.007Z,61.4
2017-03-29T07:47:27.033Z,61.72
2017-03-29T07:48:27.055Z,60.57
2017-03-29T07:50:27.109Z,61.63
2017-03-29T07:51:27.133Z,61.15
2017-03-29T07:52:41.776Z,61.6
2017-03-29T07:53:27.186Z,61.15
2017-03-29T07:54:27.216Z,61.05
2017-03-29T07:55:27.233Z,60.38
2017-03-29T07:56:27.263Z,60.96
2017-03-29T07:57:27.288Z,61.63
2017-03-29T07:58:27.316Z,61.88
2017-03-29T07:59:27.336Z,62.26
2017-03-29T08:00:27.365Z,62.26
2017-03-29T08:01:27.393Z,62.36
2017-03-29T08:02:27.412Z,62.84
2017-03-29T08:03:27.438Z,62.93
2017-03-29T08:04:27.464Z,62.84
2017-03-29T08:06:27.525Z,63.13
2017-03-29T08:07:27.548Z,63.6
2017-03-29T08:08:27.576Z,64.34
2017-03-29T08:09:27.600Z,64.15
2017-03-29T08:10:27.639Z,63.6
2017-03-29T08:11:27.822Z,64.09
2017-03-29T08:12:27.664Z,63.42
2017-03-29T08:13:27.988Z,63.32
2017-03-29T08:14:27.715Z,63.22
2017-03-29T08:15:27.767Z,62.84
2017-03-29T08:16:27.764Z,62.74
2017-03-29T08:17:27.788Z,63.13
2017-03-29T08:19:27.840Z,63.42
2017-03-29T08:20:27.864Z,63.13
2017-03-29T08:21:27.887Z,63.42
2017-03-29T08:22:27.914Z,63.8
2017-03-29T08:23:27.938Z,63.76
2017-03-29T08:24:42.577Z,64.34
2017-03-29T08:25:27.987Z,64.28
2017-03-29T08:26:28.011Z,63.13
2017-03-29T08:27:28.036Z,63.32
2017-03-29T08:28:28.060Z,63.8
2017-03-29T08:29:28.085Z,64.09
2017-03-29T08:30:28.111Z,64.28
2017-03-29T08:31:28.133Z,64.43
2017-03-29T08:32:28.156Z,64.34
2017-03-29T08:35:28.233Z,65.65
2017-03-29T08:36:28.258Z,65.94
2017-03-29T08:37:28.280Z,65.94
2017-03-29T08:38:28.305Z,66.22
2017-03-29T08:39:28.328Z,66.51
2017-03-29T08:40:42.970Z,66.32
2017-03-29T08:41:28.378Z,66.22
2017-03-29T08:42:28.404Z,66.22
2017-03-29T08:43:28.428Z,66.32
2017-03-29T08:44:28.452Z,66.16
2017-03-29T08:45:28.478Z,65.55
2017-03-29T08:46:28.499Z,64.92
2017-03-29T08:47:28.524Z,65.45
2017-03-29T08:48:28.547Z,65.68
2017-03-29T08:49:28.599Z,65.84
2017-03-29T08:52:28.644Z,65.3
2017-03-29T08:53:28.671Z,64.63
2017-03-29T08:54:28.693Z,64.92
2017-03-29T08:55:28.722Z,64.85
2017-03-29T08:56:43.358Z,64.37
2017-03-29T08:57:28.468Z,63.6
2017-03-29T08:58:28.791Z,64.37
2017-03-29T08:59:28.816Z,64.18
2017-03-29T09:00:28.838Z,63.7
2017-03-29T09:01:28.864Z,63.6
2017-03-29T09:02:28.892Z,63.7
2017-03-29T09:03:28.914Z,63.42
2017-03-29T09:04:28.937Z,63.42
2017-03-29T09:05:28.963Z,63.22
2017-03-29T09:06:28.985Z,63.22
2017-03-29T09:07:29.022Z,63.03
2017-03-29T09:08:29.049Z,62.68
2017-03-29T09:09:29.058Z,62.39
2017-03-29T09:10:28.785Z,62.2
2017-03-29T09:11:29.123Z,62.17
2017-03-29T09:12:43.752Z,62.36
2017-03-29T09:13:29.174Z,62.46
2017-03-29T09:14:29.184Z,62.55
2017-03-29T09:15:29.211Z,62.07
2017-03-29T09:16:29.236Z,62.65
2017-03-29T09:17:29.259Z,62.84
2017-03-29T09:18:29.283Z,62.74
2017-03-29T09:19:29.321Z,63.22
2017-03-29T09:22:29.383Z,62.74
2017-03-29T09:23:29.402Z,63.22
2017-03-29T09:24:29.432Z,63.32
2017-03-29T09:25:29.485Z,63.32
2017-03-29T09:26:29.487Z,63.13
2017-03-29T09:27:44.121Z,64.56
2017-03-29T09:28:29.529Z,63.32
2017-03-29T09:29:29.555Z,63.6
2017-03-29T09:30:29.581Z,64.66
2017-03-29T09:31:29.604Z,64.37
2017-03-29T09:32:29.628Z,64.37
2017-03-29T09:33:29.655Z,64.76
2017-03-29T09:34:29.679Z,64.28
2017-03-29T09:35:29.702Z,64.28
2017-03-29T09:36:29.733Z,64.09
2017-03-29T09:37:29.445Z,64.28
2017-03-29T09:38:29.777Z,64.56
2017-03-29T09:39:29.802Z,64.37
2017-03-29T09:40:29.825Z,64.66
2017-03-29T09:41:29.850Z,63.99
2017-03-29T09:42:29.575Z,63.83
2017-03-29T09:43:29.904Z,63.06
2017-03-29T09:44:29.924Z,63.16
2017-03-29T09:45:29.949Z,62.96
2017-03-29T09:46:29.974Z,63.48
2017-03-29T09:47:30.044Z,62.33
2017-03-29T09:48:30.023Z,62.42
2017-03-29T09:49:30.048Z,61.94
2017-03-29T09:50:30.072Z,62.42
2017-03-29T09:51:30.096Z,61.75
2017-03-29T09:52:30.121Z,61.37
2017-03-29T09:53:30.152Z,61.85
2017-03-29T09:54:30.174Z,61.85
2017-03-29T09:55:30.195Z,62.33
2017-03-29T09:56:30.221Z,62.62
2017-03-29T09:57:30.245Z,63.19
2017-03-29T09:58:30.268Z,63.16
2017-03-29T09:59:44.909Z,64.02
2017-03-29T10:00:30.319Z,64.09
2017-03-29T10:01:30.342Z,64.18
2017-03-29T10:02:30.368Z,63.73
2017-03-29T10:03:30.391Z,64.31
2017-03-29T10:04:30.416Z,64.31
2017-03-29T10:05:30.441Z,64.4
2017-03-29T10:06:30.468Z,64.31
2017-03-29T10:07:30.491Z,64.47
2017-03-29T10:08:30.516Z,64.56
2017-03-29T10:09:30.540Z,64.56
2017-03-29T10:10:30.565Z,65.23
2017-03-29T10:12:30.613Z,64.95
2017-03-29T10:13:30.637Z,65.52
2017-03-29T10:14:30.663Z,65.49
2017-03-29T10:15:45.302Z,66.25
2017-03-29T10:16:30.710Z,65.58
2017-03-29T10:17:30.737Z,65.78
2017-03-29T10:18:30.759Z,66.06
2017-03-29T10:19:30.785Z,65.58
2017-03-29T10:20:30.808Z,65.33
2017-03-29T10:21:30.833Z,65.71
2017-03-29T10:22:30.859Z,65.23
2017-03-29T10:24:30.904Z,65.23
2017-03-29T10:25:30.927Z,65.42
2017-03-29T10:27:30.980Z,66.06
2017-03-29T10:28:31.004Z,66.54
2017-03-29T10:29:31.026Z,66.64
2017-03-29T10:30:31.051Z,66.16
2017-03-29T10:31:45.694Z,66.64
2017-03-29T10:32:31.101Z,66.54
2017-03-29T10:33:31.123Z,66.54
2017-03-29T10:34:31.150Z,66.83
2017-03-29T10:35:31.177Z,66.83
2017-03-29T10:36:31.199Z,67.18
2017-03-29T10:37:31.221Z,66.7
2017-03-29T10:38:31.545Z,67.66
2017-03-29T10:39:31.269Z,67.18
2017-03-29T10:41:31.318Z,66.89
2017-03-29T10:43:31.367Z,67.56
2017-03-29T10:44:31.388Z,66.8
2017-03-29T10:45:31.430Z,67.18
2017-03-29T10:47:46.076Z,66.89
2017-03-29T10:48:31.492Z,67.56
2017-03-29T10:49:31.516Z,67.18
2017-03-29T10:50:31.535Z,67.56
2017-03-29T10:51:31.556Z,67.27
2017-03-29T10:52:31.590Z,66.89
2017-03-29T10:53:31.602Z,67.47
2017-03-29T10:54:31.626Z,66.7
2017-03-29T10:55:31.650Z,66.7
2017-03-29T10:56:31.674Z,66.64
2017-03-29T10:57:31.697Z,65.3
2017-03-29T10:58:31.721Z,65.05
2017-03-29T10:59:31.755Z,64.85
2017-03-29T11:01:31.493Z,63.8
2017-03-29T11:02:46.436Z,63.16
2017-03-29T11:03:31.843Z,63.6
2017-03-29T11:04:31.867Z,63.7
2017-03-29T11:05:31.892Z,63.8
2017-03-29T11:06:31.917Z,63.89
2017-03-29T11:07:31.942Z,63.73
2017-03-29T11:08:31.660Z,63.35
2017-03-29T11:09:31.989Z,62.74
2017-03-29T11:10:32.013Z,63.22
2017-03-29T11:11:32.036Z,63.32
2017-03-29T11:12:32.062Z,62.93
2017-03-29T11:13:32.087Z,63.13
2017-03-29T11:16:31.855Z,63.13
2017-03-29T11:17:32.181Z,62.74
2017-03-29T11:18:32.507Z,63.32
2017-03-29T11:19:32.232Z,62.26
2017-03-29T11:20:32.260Z,62.17
2017-03-29T11:21:32.283Z,62.46
2017-03-29T11:22:32.307Z,62.3
2017-03-29T11:23:32.331Z,61.4
2017-03-29T11:24:32.353Z,61.72
2017-03-29T11:25:32.376Z,60.76
2017-03-29T11:26:32.401Z,60.03
2017-03-29T11:27:32.424Z,60.22
2017-03-29T11:28:32.451Z,60.57
2017-03-29T11:29:32.474Z,60.86
2017-03-29T11:31:32.524Z,62.26
2017-03-29T11:32:32.552Z,62.26
2017-03-29T11:33:32.572Z,62.84
2017-03-29T11:34:47.213Z,63.03
2017-03-29T11:35:32.621Z,63.6
2017-03-29T11:36:32.647Z,64.28
2017-03-29T11:37:32.671Z,64.63
2017-03-29T11:38:32.693Z,65.49
2017-03-29T11:39:32.718Z,65.88
2017-03-29T11:40:32.742Z,66.25
2017-03-29T11:41:32.765Z,68.04
2017-03-29T11:42:32.790Z,68.07
2017-03-29T11:43:32.815Z,68.04
2017-03-29T11:44:32.839Z,68.04
2017-03-29T11:45:32.868Z,67.79
2017-03-29T11:46:32.887Z,68.07
2017-03-29T11:47:32.915Z,67.6
2017-03-29T11:48:32.936Z,67.6
2017-03-29T11:49:32.959Z,66.93
2017-03-29T11:50:47.602Z,66.83
2017-03-29T11:51:33.009Z,67.11
2017-03-29T11:52:33.033Z,66.83
2017-03-29T11:53:33.058Z,66.67
2017-03-29T11:54:33.082Z,67.44
2017-03-29T11:55:33.106Z,68.74
2017-03-29T11:56:33.128Z,68.74
2017-03-29T11:57:33.154Z,69.51
2017-03-29T11:58:32.875Z,70.47
2017-03-29T11:59:33.209Z,71.33
2017-03-29T12:00:32.923Z,71.87
2017-03-29T12:01:33.251Z,72.63
2017-03-29T12:02:33.274Z,73.21
2017-03-29T12:04:33.021Z,73.4
2017-03-29T12:05:33.356Z,73.59
2017-03-29T12:06:47.988Z,73.24
2017-03-29T12:07:33.397Z,72.92
2017-03-29T12:08:33.420Z,72.58
2017-03-29T12:09:33.444Z,72.96
2017-03-29T12:10:33.468Z,71.42
2017-03-29T12:11:33.492Z,72.09
2017-03-29T12:12:33.516Z,71.62
2017-03-29T12:13:33.541Z,72.16
2017-03-29T12:14:33.565Z,72.54
2017-03-29T12:15:33.589Z,72.54
2017-03-29T12:16:33.613Z,72.73
2017-03-29T12:17:33.636Z,73.3
2017-03-29T12:18:33.663Z,74.16
2017-03-29T12:19:33.686Z,74.16
2017-03-29T12:20:33.710Z,75.22
2017-03-29T12:21:33.735Z,75.22
2017-03-29T12:22:48.375Z,76.04
2017-03-29T12:23:33.782Z,75.85
2017-03-29T12:24:33.808Z,75.66
2017-03-29T12:25:33.831Z,75.22
2017-03-29T12:26:33.856Z,75.37
2017-03-29T12:27:33.878Z,76.33
2017-03-29T12:28:33.907Z,76.42
2017-03-29T12:29:33.926Z,75.85
2017-03-29T12:30:33.953Z,76.62
2017-03-29T12:31:33.975Z,76.48
2017-03-29T12:32:33.997Z,76.57
2017-03-29T12:33:34.022Z,76.86
2017-03-29T12:36:34.097Z,77.15
2017-03-29T12:37:48.736Z,77.92
2017-03-29T12:38:34.144Z,77.82
2017-03-29T12:39:34.166Z,78.39
2017-03-29T12:40:34.191Z,79.44
2017-03-29T12:41:34.214Z,80.3
2017-03-29T12:42:34.244Z,81.36
2017-03-29T12:43:34.262Z,81.51
2017-03-29T12:44:34.286Z,82.75
2017-03-29T12:45:34.311Z,83.33
2017-03-29T12:46:34.332Z,83.13
2017-03-29T12:47:34.355Z,83.7
2017-03-29T12:48:34.409Z,83.9
2017-03-29T12:49:34.403Z,83.9
2017-03-29T12:51:34.452Z,85.14
2017-03-29T12:52:34.474Z,85.42
2017-03-29T12:53:34.498Z,85.42
2017-03-29T12:54:34.521Z,85.86
2017-03-29T12:55:34.562Z,85.71
2017-03-29T12:56:34.570Z,85.52
2017-03-29T12:57:34.592Z,85.14
2017-03-29T12:58:34.614Z,85.71
2017-03-29T12:59:34.639Z,86.1
2017-03-29T13:00:34.661Z,85.62
2017-03-29T13:01:34.685Z,85.33
2017-03-29T13:02:34.708Z,86.38
2017-03-29T13:04:34.455Z,86.1
2017-03-29T13:07:34.826Z,85.81
2017-03-29T13:08:34.851Z,85.62
2017-03-29T13:09:49.488Z,86.1
2017-03-29T13:10:34.897Z,86
2017-03-29T13:11:34.922Z,86
2017-03-29T13:12:34.943Z,85.42
2017-03-29T13:13:34.966Z,85.42
2017-03-29T13:14:34.989Z,85.05
2017-03-29T13:15:35.013Z,85.52
2017-03-29T13:16:34.732Z,85.81
2017-03-29T13:17:35.060Z,85.71
2017-03-29T13:18:35.084Z,86
2017-03-29T13:19:35.107Z,85.14
2017-03-29T13:20:35.129Z,84.61
2017-03-29T13:21:34.852Z,85.33
2017-03-29T13:23:35.201Z,84.38
2017-03-29T13:24:35.228Z,85.81
2017-03-29T13:25:49.863Z,85.42
2017-03-29T13:26:35.272Z,85.33
2017-03-29T13:27:34.992Z,85.14
2017-03-29T13:28:35.316Z,85.14
2017-03-29T13:29:35.344Z,85.71
2017-03-29T13:30:35.363Z,86.57
2017-03-29T13:31:35.386Z,85.9
2017-03-29T13:32:35.410Z,86.57
2017-03-29T13:33:35.433Z,86.19
2017-03-29T13:35:35.484Z,86.38
2017-03-29T13:36:35.504Z,86.38
2017-03-29T13:38:35.549Z,86.29
2017-03-29T13:39:35.575Z,86.67
2017-03-29T13:40:35.597Z,87.72
2017-03-29T13:41:50.237Z,87.68
2017-03-29T13:42:35.645Z,87.58
2017-03-29T13:43:35.365Z,87.77
2017-03-29T13:44:35.698Z,88.44
2017-03-29T13:45:35.714Z,88.63
2017-03-29T13:46:35.738Z,88.15
2017-03-29T13:47:35.760Z,88.82
2017-03-29T13:48:35.795Z,88.63
2017-03-29T13:49:35.503Z,88.34
2017-03-29T13:50:35.832Z,88.63
2017-03-29T13:51:35.553Z,88.54
2017-03-29T13:52:35.876Z,89.3
2017-03-29T13:54:35.924Z,89.2
2017-03-29T13:55:35.945Z,88.44
2017-03-29T13:56:35.968Z,89.59
2017-03-29T13:57:50.608Z,89.97
2017-03-29T13:58:36.015Z,89.59